createdAt,value
2023-04-18T00:01:51.187Z,12.57
2023-04-18T00:04:18.537Z,11.73
2023-04-18T00:06:47.225Z,11.63
2023-04-18T00:09:14.704Z,12.15
2023-04-18T00:11:41.341Z,14.88
2023-04-18T00:14:08.611Z,13.50
2023-04-18T00:16:36.371Z,13.93
2023-04-18T00:19:04.895Z,11.63
2023-04-18T00:21:32.142Z,13.77
2023-04-18T00:24:00.101Z,12.45
2023-04-18T00:26:28.059Z,11.07
2023-04-18T00:28:54.729Z,13.95
2023-04-18T00:31:21.478Z,10.85
2023-04-18T00:33:49.280Z,10.57
2023-04-18T00:36:15.866Z,10.80
2023-04-18T00:38:42.535Z,14.13
2023-04-18T00:41:09.114Z,12.20
2023-04-18T00:43:35.976Z,11.27
2023-04-18T00:46:02.729Z,12.65
2023-04-18T00:48:30.514Z,14.20
2023-04-18T00:50:57.402Z,12.82
2023-04-18T00:53:24.181Z,9.07
2023-04-18T00:55:51.303Z,12.88
2023-04-18T00:58:17.980Z,8.68
2023-04-18T01:00:47.595Z,9.75
2023-04-18T01:03:14.833Z,17.35
2023-04-18T01:05:41.694Z,11.00
2023-04-18T01:08:09.280Z,9.43
2023-04-18T01:10:36.169Z,9.90
2023-04-18T01:13:21.454Z,12.35
2023-04-18T01:15:50.039Z,12.85
2023-04-18T01:18:17.314Z,9.80
2023-04-18T01:20:49.422Z,10.43
2023-04-18T01:23:17.210Z,10.25
2023-04-18T01:25:44.925Z,10.43
2023-04-18T01:28:15.161Z,11.38
2023-04-18T01:30:41.879Z,10.23
2023-04-18T01:33:09.870Z,11.25
2023-04-18T01:35:36.538Z,11.10
2023-04-18T01:38:03.479Z,14.30
2023-04-18T01:40:30.342Z,19.65
2023-04-18T01:42:57.002Z,10.70
2023-04-18T01:45:23.813Z,10.82
2023-04-18T01:47:50.547Z,15.02
2023-04-18T01:50:17.243Z,21.10
2023-04-18T01:52:43.855Z,16.20
2023-04-18T01:55:10.707Z,16.85
2023-04-18T01:57:37.436Z,16.92
2023-04-18T02:00:06.551Z,13.75
2023-04-18T02:02:33.353Z,16.20
2023-04-18T02:05:00.474Z,15.43
2023-04-18T02:07:27.037Z,19.27
2023-04-18T02:09:53.664Z,12.27
2023-04-18T02:12:21.055Z,30.50
2023-04-18T02:14:52.374Z,14.60
2023-04-18T02:17:21.624Z,15.52
2023-04-18T02:19:48.333Z,14.18
2023-04-18T02:22:14.958Z,15.88
2023-04-18T02:24:41.656Z,13.45
2023-04-18T02:27:08.360Z,12.85
2023-04-18T02:29:35.022Z,19.45
2023-04-18T02:32:02.436Z,17.60
2023-04-18T02:34:29.104Z,14.35
2023-04-18T02:36:55.688Z,13.25
2023-04-18T02:39:22.332Z,13.65
2023-04-18T02:41:48.876Z,13.98
2023-04-18T02:44:17.080Z,12.98
2023-04-18T02:46:44.485Z,12.40
2023-04-18T02:49:11.166Z,13.02
2023-04-18T02:51:37.829Z,15.48
2023-04-18T02:54:05.271Z,9.05
2023-04-18T02:56:31.864Z,9.50
2023-04-18T02:58:58.475Z,8.93
2023-04-18T03:01:25.218Z,12.20
2023-04-18T03:03:52.270Z,11.25
2023-04-18T03:06:21.388Z,12.77
2023-04-18T03:08:48.017Z,13.23
2023-04-18T03:11:14.574Z,10.55
2023-04-18T03:13:41.126Z,11.07
2023-04-18T03:16:08.691Z,10.93
2023-04-18T03:18:35.287Z,11.40
2023-04-18T03:21:01.854Z,11.95
2023-04-18T03:23:29.291Z,13.13
2023-04-18T03:25:55.921Z,14.70
2023-04-18T03:28:22.567Z,13.07
2023-04-18T03:30:49.204Z,20.38
2023-04-18T03:33:18.845Z,15.43
2023-04-18T03:35:45.540Z,14.32
2023-04-18T03:38:12.528Z,18.85
2023-04-18T03:40:39.126Z,17.10
2023-04-18T03:43:05.829Z,18.38
2023-04-18T03:45:32.622Z,13.98
2023-04-18T03:47:59.298Z,17.45
2023-04-18T03:50:26.017Z,9.57
2023-04-18T03:52:54.401Z,17.48
2023-04-18T03:55:21.857Z,13.45
2023-04-18T03:57:48.429Z,14.63
2023-04-18T04:00:16.224Z,15.55
2023-04-18T04:02:42.955Z,13.27
2023-04-18T04:05:10.013Z,12.20
2023-04-18T04:07:37.661Z,11.75
2023-04-18T04:10:04.581Z,15.70
2023-04-18T04:12:31.239Z,13.27
2023-04-18T04:14:59.679Z,13.23
2023-04-18T04:17:26.339Z,15.35
2023-04-18T04:19:53.032Z,15.98
2023-04-18T04:22:21.220Z,13.07
2023-04-18T04:24:47.998Z,11.02
2023-04-18T04:27:14.742Z,13.77
2023-04-18T04:29:41.512Z,13.43
2023-04-18T04:32:08.198Z,21.42
2023-04-18T04:34:35.828Z,15.10
2023-04-18T04:37:03.368Z,20.75
2023-04-18T04:39:29.922Z,15.07
2023-04-18T04:41:57.649Z,18.30
2023-04-18T04:44:27.565Z,13.73
2023-04-18T04:46:54.547Z,12.90
2023-04-18T04:49:21.255Z,16.70
2023-04-18T04:51:47.894Z,13.65
2023-04-18T04:54:14.684Z,12.85
2023-04-18T04:56:41.392Z,12.98
2023-04-18T04:59:09.477Z,16.75
2023-04-18T05:01:36.229Z,13.27
2023-04-18T05:04:03.047Z,16.23
2023-04-18T05:06:29.798Z,13.02
2023-04-18T05:08:57.591Z,13.65
2023-04-18T05:11:24.270Z,11.65
2023-04-18T05:13:52.400Z,10.00
2023-04-18T05:16:19.059Z,12.27
2023-04-18T05:18:45.957Z,16.50
2023-04-18T05:21:13.570Z,15.18
2023-04-18T05:23:40.192Z,10.27
2023-04-18T05:26:07.050Z,10.38
2023-04-18T05:28:33.766Z,36.75
2023-04-18T05:31:03.164Z,8.65
2023-04-18T05:33:33.898Z,12.77
2023-04-18T05:36:00.721Z,11.07
2023-04-18T05:38:27.344Z,12.25
2023-04-18T05:40:55.918Z,13.45
2023-04-18T05:43:23.302Z,11.68
2023-04-18T05:45:52.460Z,14.70
2023-04-18T05:48:19.416Z,11.45
2023-04-18T05:50:46.930Z,13.50
2023-04-18T05:53:13.494Z,10.95
2023-04-18T05:55:41.065Z,11.07
2023-04-18T05:58:07.916Z,12.27
2023-04-18T06:00:35.753Z,13.65
2023-04-18T06:03:02.620Z,14.20
2023-04-18T06:05:29.807Z,17.20
2023-04-18T06:07:56.731Z,12.75
2023-04-18T06:10:23.314Z,14.23
2023-04-18T06:12:49.953Z,17.98
2023-04-18T06:15:16.808Z,16.85
2023-04-18T06:17:44.621Z,13.15
2023-04-18T06:20:11.556Z,16.17
2023-04-18T06:22:38.191Z,11.38
2023-04-18T06:25:05.702Z,15.68
2023-04-18T06:27:32.366Z,13.68
2023-04-18T06:29:59.153Z,12.85
2023-04-18T06:32:26.127Z,13.00
2023-04-18T06:34:56.844Z,15.43
2023-04-18T06:37:24.055Z,16.80
2023-04-18T06:39:50.740Z,16.02
2023-04-18T06:42:19.119Z,14.88
2023-04-18T06:44:46.785Z,13.32
2023-04-18T06:47:13.463Z,12.68
2023-04-18T06:49:40.588Z,11.93
2023-04-18T06:52:07.272Z,13.93
2023-04-18T06:54:33.880Z,14.63
2023-04-18T06:57:03.777Z,12.13
2023-04-18T06:59:30.719Z,13.82
2023-04-18T07:01:57.332Z,15.00
2023-04-18T07:05:05.586Z,14.00
2023-04-18T07:07:33.105Z,18.33
2023-04-18T07:10:00.061Z,14.98
2023-04-18T07:12:28.000Z,15.80
2023-04-18T07:14:55.245Z,15.23
2023-04-18T07:17:21.913Z,13.27
2023-04-18T07:19:48.586Z,11.27
2023-04-18T07:22:15.253Z,13.32
2023-04-18T07:24:42.242Z,13.38
2023-04-18T07:27:09.667Z,13.25
2023-04-18T07:29:36.341Z,18.98
2023-04-18T07:32:03.040Z,14.60
2023-04-18T07:34:30.246Z,12.55
2023-04-18T07:36:57.470Z,13.25
2023-04-18T07:39:24.117Z,12.85
2023-04-18T07:41:50.786Z,11.25
2023-04-18T07:44:18.298Z,13.73
2023-04-18T07:46:45.152Z,14.32
2023-04-18T07:49:12.182Z,11.15
2023-04-18T07:51:38.938Z,9.93
2023-04-18T07:54:05.578Z,9.55
2023-04-18T07:56:32.222Z,10.15
2023-04-18T07:58:58.824Z,12.48
2023-04-18T08:01:27.223Z,11.82
2023-04-18T08:03:55.235Z,13.30
2023-04-18T08:06:22.016Z,12.23
2023-04-18T08:08:48.749Z,11.85
2023-04-18T08:11:18.370Z,13.23
2023-04-18T08:13:44.931Z,16.30
2023-04-18T08:16:11.628Z,13.10
2023-04-18T08:18:39.120Z,11.98
2023-04-18T08:21:05.830Z,17.23
2023-04-18T08:23:32.416Z,20.52
2023-04-18T08:26:00.580Z,16.38
2023-04-18T08:28:27.286Z,21.83
2023-04-18T08:30:55.278Z,11.85
2023-04-18T08:33:24.474Z,10.38
2023-04-18T08:35:51.602Z,15.00
2023-04-18T08:38:18.895Z,17.50
2023-04-18T08:40:45.964Z,15.43
2023-04-18T08:43:16.730Z,16.38
2023-04-18T08:45:44.736Z,20.58
2023-04-18T08:48:14.111Z,13.68
2023-04-18T08:50:41.712Z,18.23
2023-04-18T08:53:08.852Z,16.05
2023-04-18T08:55:37.201Z,15.10
2023-04-18T08:58:07.157Z,14.32
2023-04-18T09:00:34.257Z,13.68
2023-04-18T09:03:03.016Z,11.88
2023-04-18T09:05:29.913Z,14.65
2023-04-18T09:07:56.872Z,26.13
2023-04-18T09:10:33.103Z,14.85
2023-04-18T09:13:03.268Z,18.67
2023-04-18T09:15:30.533Z,9.80
2023-04-18T09:18:00.311Z,8.85
2023-04-18T09:20:36.597Z,15.48
2023-04-18T09:23:11.727Z,12.85
2023-04-18T09:25:48.100Z,14.50
2023-04-18T09:28:29.136Z,14.52
2023-04-18T09:30:57.676Z,11.50
2023-04-18T09:33:30.230Z,11.13
2023-04-18T09:35:57.341Z,13.40
2023-04-18T09:38:40.464Z,13.10
2023-04-18T09:41:11.548Z,11.52
2023-04-18T09:43:38.871Z,17.30
2023-04-18T09:46:07.365Z,15.15
2023-04-18T09:48:34.194Z,34.53
2023-04-18T09:51:06.272Z,9.93
2023-04-18T09:53:49.039Z,13.93
2023-04-18T09:56:26.230Z,11.43
2023-04-18T09:59:10.056Z,20.98
2023-04-18T10:01:37.296Z,20.05
2023-04-18T10:04:06.741Z,10.13
2023-04-18T18:34:32.174Z,276.75
2023-04-18T18:36:58.733Z,226.82
2023-04-18T18:39:25.313Z,205.63
2023-04-18T18:41:58.607Z,200.18
2023-04-18T18:44:25.145Z,206.88
2023-04-18T18:46:54.279Z,206.27
2023-04-18T18:49:21.845Z,178.50
2023-04-18T18:51:48.386Z,171.30
2023-04-18T18:54:17.124Z,153.95
2023-04-18T18:56:45.283Z,167.07
2023-04-18T18:59:12.101Z,155.25
2023-04-18T19:01:38.900Z,167.68
2023-04-18T19:04:05.799Z,180.93
2023-04-18T19:06:32.579Z,175.27
2023-04-18T19:09:01.836Z,177.02
2023-04-18T19:11:29.531Z,158.57
2023-04-18T19:13:56.110Z,258.30
2023-04-18T19:16:23.095Z,189.07
2023-04-18T19:18:52.543Z,168.57
2023-04-18T19:21:20.282Z,155.20
2023-04-18T19:23:46.973Z,122.57
2023-04-18T19:26:14.606Z,97.70
2023-04-18T19:28:41.573Z,98.72
2023-04-18T19:31:09.605Z,98.88
2023-04-18T19:33:36.260Z,106.75
2023-04-18T19:36:02.949Z,98.68
2023-04-18T19:38:29.504Z,106.97
2023-04-18T19:40:56.148Z,94.95
2023-04-18T19:43:22.705Z,85.80
2023-04-18T19:45:50.928Z,188.30
2023-04-18T19:48:17.636Z,136.07
2023-04-18T19:50:44.704Z,96.13
2023-04-18T19:53:11.254Z,65.43
2023-04-18T19:55:38.420Z,72.85
2023-04-18T19:58:05.873Z,67.63
2023-04-18T20:00:34.154Z,66.45
2023-04-18T20:03:02.761Z,69.47
2023-04-18T20:05:29.481Z,60.05
2023-04-18T20:07:56.128Z,70.18
2023-04-18T20:10:24.459Z,85.63
2023-04-18T20:12:51.198Z,73.78
2023-04-18T20:15:17.860Z,58.20
2023-04-18T20:17:44.717Z,56.10
2023-04-18T20:20:11.908Z,56.53
2023-04-18T20:22:40.387Z,62.45
2023-04-18T20:25:07.275Z,48.50
2023-04-18T20:27:33.896Z,50.33
2023-04-18T20:30:00.492Z,50.70
2023-04-18T20:32:27.643Z,46.47
2023-04-18T20:34:55.073Z,42.85
2023-04-18T20:37:21.665Z,97.57
2023-04-18T20:39:48.641Z,111.80
2023-04-18T20:42:15.884Z,269.30
2023-04-18T20:44:46.795Z,67.25
2023-04-18T20:47:15.472Z,59.88
2023-04-18T20:49:42.535Z,51.42
2023-04-18T20:52:13.355Z,55.03
2023-04-18T20:54:41.199Z,61.72
2023-04-18T20:57:08.152Z,60.28
2023-04-18T20:59:34.742Z,146.23
2023-04-18T21:02:01.535Z,136.77
2023-04-18T21:04:28.411Z,115.70
2023-04-18T21:06:55.115Z,54.75
2023-04-18T21:09:21.806Z,80.10
2023-04-18T21:11:48.358Z,52.63
2023-04-18T21:14:17.123Z,43.65
2023-04-18T21:16:44.062Z,36.13
2023-04-18T21:19:11.076Z,33.30
2023-04-18T21:21:37.677Z,37.40
2023-04-18T21:24:06.727Z,32.05
2023-04-18T21:26:33.322Z,27.88
2023-04-18T21:29:04.807Z,36.22
2023-04-18T21:31:33.818Z,31.30
2023-04-18T21:34:03.196Z,28.42
2023-04-18T21:36:30.990Z,26.73
2023-04-18T21:38:59.285Z,29.60
2023-04-18T21:41:26.309Z,31.90
2023-04-18T21:43:53.242Z,29.52
2023-04-18T21:46:20.921Z,28.25
2023-04-18T21:48:47.910Z,27.63
2023-04-18T21:51:16.833Z,28.83
2023-04-18T21:53:43.710Z,32.30
2023-04-18T21:56:10.990Z,32.70
2023-04-18T21:58:37.727Z,22.60
2023-04-18T22:01:04.471Z,26.02
2023-04-18T22:03:31.857Z,25.50
2023-04-18T22:05:58.947Z,39.45
2023-04-18T22:08:26.329Z,25.13
2023-04-18T22:11:00.390Z,26.25
2023-04-18T22:13:34.834Z,24.83
2023-04-18T22:16:03.157Z,30.65
2023-04-18T22:18:33.801Z,60.10
2023-04-18T22:21:03.307Z,40.83
2023-04-18T22:23:30.665Z,30.80
2023-04-18T22:25:57.228Z,23.63
2023-04-18T22:28:23.862Z,25.80
2023-04-18T22:30:51.157Z,29.30
2023-04-18T22:33:19.399Z,22.92
2023-04-18T22:35:48.621Z,27.48
2023-04-18T22:38:15.851Z,25.05
2023-04-18T22:40:42.451Z,29.10
2023-04-18T22:43:12.117Z,181.85
2023-04-18T22:45:38.681Z,44.13
2023-04-18T22:48:05.441Z,36.97
2023-04-18T22:50:33.594Z,31.33
2023-04-18T22:53:00.146Z,29.75
2023-04-18T22:55:26.711Z,56.85
2023-04-18T22:57:54.017Z,43.17
2023-04-18T23:00:20.651Z,41.00
2023-04-18T23:02:47.331Z,30.75
2023-04-18T23:05:16.657Z,28.83
2023-04-18T23:07:43.260Z,37.03
2023-04-18T23:10:10.499Z,37.63
2023-04-18T23:12:37.110Z,40.40
2023-04-18T23:15:04.003Z,36.03
2023-04-18T23:17:30.636Z,35.70
2023-04-18T23:19:57.934Z,34.25
2023-04-18T23:22:24.576Z,40.10
2023-04-18T23:24:51.447Z,37.05
2023-04-18T23:27:19.825Z,33.08
2023-04-18T23:29:49.537Z,33.97
2023-04-18T23:32:16.391Z,30.83
2023-04-18T23:34:43.045Z,34.83
2023-04-18T23:37:09.732Z,33.70
2023-04-18T23:39:36.432Z,35.35
2023-04-18T23:42:03.874Z,31.75
2023-04-18T23:44:31.687Z,33.67
2023-04-18T23:46:58.968Z,48.42
2023-04-18T23:49:27.652Z,37.30
2023-04-18T23:51:54.260Z,38.15
2023-04-18T23:54:20.888Z,33.90
2023-04-18T23:56:47.473Z,30.38
2023-04-18T23:59:14.030Z,32.67
